createdAt,value
2017-11-07T00:00:16.826Z,6.50
2017-11-07T00:01:23.954Z,6.80
2017-11-07T00:02:30.854Z,7.00
2017-11-07T00:03:37.633Z,7.60
2017-11-07T00:04:44.504Z,7.90
2017-11-07T00:05:51.357Z,6.80
2017-11-07T00:06:58.225Z,7.10
2017-11-07T00:08:05.225Z,5.90
2017-11-07T00:09:12.106Z,7.50
2017-11-07T00:10:19.245Z,6.70
2017-11-07T00:11:26.197Z,7.00
2017-11-07T00:12:33.176Z,8.50
2017-11-07T00:13:39.983Z,8.60
2017-11-07T00:14:46.925Z,7.20
2017-11-07T00:15:53.890Z,8.60
2017-11-07T00:17:00.837Z,6.50
2017-11-07T00:18:07.682Z,7.60
2017-11-07T00:19:14.689Z,7.40
2017-11-07T00:20:21.541Z,8.30
2017-11-07T00:21:28.258Z,9.40
2017-11-07T00:22:35.180Z,7.60
2017-11-07T00:23:42.291Z,6.50
2017-11-07T00:24:49.245Z,7.50
2017-11-07T00:25:56.065Z,6.00
2017-11-07T00:27:02.868Z,6.90
2017-11-07T00:28:09.682Z,7.30
2017-11-07T00:29:16.508Z,6.40
2017-11-07T00:30:23.253Z,8.00
2017-11-07T00:31:30.076Z,7.00
2017-11-07T00:32:37.014Z,6.30
2017-11-07T00:33:43.909Z,7.00
2017-11-07T00:34:50.689Z,6.20
2017-11-07T00:35:57.605Z,11.20
2017-11-07T00:37:04.445Z,8.20
2017-11-07T00:38:11.553Z,7.00
2017-11-07T00:39:18.441Z,7.10
2017-11-07T00:40:25.260Z,7.00
2017-11-07T00:41:31.957Z,8.80
2017-11-07T00:42:38.752Z,7.40
2017-11-07T00:43:45.605Z,6.90
2017-11-07T00:44:52.562Z,9.80
2017-11-07T00:45:59.425Z,6.90
2017-11-07T00:47:06.297Z,9.70
2017-11-07T00:48:13.096Z,7.20
2017-11-07T00:49:19.885Z,6.50
2017-11-07T00:50:26.653Z,6.40
2017-11-07T00:51:33.437Z,6.20
2017-11-07T00:52:40.302Z,6.50
2017-11-07T00:53:47.203Z,7.40
2017-11-07T00:54:53.970Z,7.60
2017-11-07T00:56:00.868Z,6.70
2017-11-07T00:57:07.717Z,6.20
2017-11-07T00:58:14.461Z,6.40
2017-11-07T00:59:21.357Z,6.20
2017-11-07T01:00:28.107Z,7.30
2017-11-07T01:01:34.978Z,7.40
2017-11-07T01:02:42.102Z,7.80
2017-11-07T01:03:48.972Z,7.90
2017-11-07T01:04:55.881Z,6.50
2017-11-07T01:06:02.828Z,7.40
2017-11-07T01:07:09.578Z,6.80
2017-11-07T01:08:16.296Z,7.50
2017-11-07T01:09:23.165Z,6.90
2017-11-07T01:10:29.997Z,9.60
2017-11-07T01:11:36.801Z,8.30
2017-11-07T01:12:43.460Z,7.10
2017-11-07T01:13:50.229Z,7.20
2017-11-07T01:14:57.092Z,6.20
2017-11-07T01:16:04.079Z,6.90
2017-11-07T01:17:10.793Z,7.70
2017-11-07T01:18:17.743Z,7.70
2017-11-07T01:19:24.501Z,8.90
2017-11-07T01:20:31.322Z,9.50
2017-11-07T01:21:38.250Z,7.30
2017-11-07T01:22:45.035Z,7.60
2017-11-07T01:23:52.058Z,10.30
2017-11-07T01:24:58.805Z,7.80
2017-11-07T01:26:05.589Z,9.90
2017-11-07T01:27:12.441Z,10.60
2017-11-07T01:28:19.282Z,9.70
2017-11-07T01:29:26.125Z,8.00
2017-11-07T01:30:33.402Z,11.30
2017-11-07T01:31:40.328Z,9.80
2017-11-07T01:32:47.154Z,9.60
2017-11-07T01:33:53.970Z,9.30
2017-11-07T01:35:00.862Z,10.60
2017-11-07T01:36:07.881Z,7.60
2017-11-07T01:37:15.030Z,9.50
2017-11-07T01:38:21.833Z,12.10
2017-11-07T01:39:28.821Z,10.40
2017-11-07T01:40:35.569Z,10.20
2017-11-07T01:41:42.357Z,9.60
2017-11-07T01:42:49.132Z,10.10
2017-11-07T01:43:56.076Z,11.20
2017-11-07T01:45:02.932Z,8.20
2017-11-07T01:46:09.797Z,9.20
2017-11-07T01:47:16.572Z,10.00
2017-11-07T01:48:23.337Z,8.90
2017-11-07T01:49:30.329Z,7.50
2017-11-07T01:50:37.265Z,9.00
2017-11-07T01:51:44.258Z,10.10
2017-11-07T01:52:51.101Z,10.70
2017-11-07T01:53:57.914Z,8.10
2017-11-07T01:55:04.800Z,9.30
2017-11-07T01:56:11.845Z,9.90
2017-11-07T01:57:18.721Z,9.00
2017-11-07T01:58:25.611Z,11.10
2017-11-07T01:59:32.553Z,8.90
2017-11-07T02:00:39.526Z,11.10
2017-11-07T02:01:46.482Z,6.70
2017-11-07T02:02:53.220Z,9.40
2017-11-07T02:04:00.138Z,10.00
2017-11-07T02:05:07.085Z,8.50
2017-11-07T02:06:14.038Z,10.20
2017-11-07T02:07:20.842Z,8.00
2017-11-07T02:08:27.842Z,7.70
2017-11-07T02:09:34.666Z,8.30
2017-11-07T02:10:41.657Z,10.40
2017-11-07T02:11:48.473Z,8.00
2017-11-07T02:12:55.316Z,12.30
2017-11-07T02:14:02.138Z,7.80
2017-11-07T02:15:09.034Z,10.00
2017-11-07T02:16:16.117Z,10.50
2017-11-07T02:17:23.172Z,7.80
2017-11-07T02:18:30.161Z,7.90
2017-11-07T02:19:36.933Z,8.50
2017-11-07T02:20:43.813Z,7.50
2017-11-07T02:21:50.665Z,7.70
2017-11-07T02:22:57.524Z,9.10
2017-11-07T02:24:04.633Z,8.60
2017-11-07T02:25:11.709Z,7.50
2017-11-07T02:26:18.697Z,9.90
2017-11-07T02:27:25.713Z,9.00
2017-11-07T02:28:32.862Z,9.40
2017-11-07T02:29:40.189Z,6.50
2017-11-07T02:30:46.709Z,9.00
2017-11-07T02:31:53.777Z,7.00
2017-11-07T02:33:00.517Z,9.90
2017-11-07T02:34:07.579Z,7.20
2017-11-07T02:35:14.607Z,8.60
2017-11-07T02:36:21.538Z,7.80
2017-11-07T02:37:28.392Z,9.40
2017-11-07T02:38:35.213Z,9.20
2017-11-07T02:39:42.040Z,10.70
2017-11-07T02:40:48.778Z,9.80
2017-11-07T02:41:55.641Z,7.40
2017-11-07T02:43:02.454Z,9.30
2017-11-07T02:44:09.458Z,8.30
2017-11-07T02:45:16.353Z,10.60
2017-11-07T02:46:23.345Z,11.20
2017-11-07T02:47:30.290Z,8.80
2017-11-07T02:48:37.182Z,10.20
2017-11-07T02:49:44.212Z,7.30
2017-11-07T02:50:51.161Z,8.00
2017-11-07T02:51:58.189Z,7.50
2017-11-07T02:53:05.081Z,11.00
2017-11-07T02:54:11.878Z,9.70
2017-11-07T02:55:18.675Z,11.30
2017-11-07T02:56:25.840Z,11.10
2017-11-07T02:57:32.813Z,9.00
2017-11-07T02:58:39.557Z,11.80
2017-11-07T02:59:46.553Z,10.10
2017-11-07T03:00:53.478Z,9.00
2017-11-07T03:02:00.562Z,8.50
2017-11-07T03:03:07.454Z,7.10
2017-11-07T03:04:14.263Z,9.10
2017-11-07T03:05:21.177Z,11.40
2017-11-07T03:06:27.953Z,9.70
2017-11-07T03:07:34.701Z,11.90
2017-11-07T03:08:41.506Z,8.90
2017-11-07T03:09:48.183Z,11.50
2017-11-07T03:10:54.970Z,8.00
2017-11-07T03:12:01.941Z,11.90
2017-11-07T03:13:08.685Z,9.70
2017-11-07T03:14:15.411Z,10.10
2017-11-07T03:15:22.181Z,9.60
2017-11-07T03:16:28.953Z,8.10
2017-11-07T03:17:35.756Z,10.90
2017-11-07T03:18:42.477Z,7.90
2017-11-07T03:19:49.232Z,10.30
2017-11-07T03:20:56.225Z,9.90
2017-11-07T03:22:03.055Z,12.20
2017-11-07T03:23:10.081Z,11.90
2017-11-07T03:24:16.921Z,12.40
2017-11-07T03:25:23.630Z,10.50
2017-11-07T03:26:30.472Z,10.20
2017-11-07T03:27:37.394Z,10.70
2017-11-07T03:28:44.085Z,11.40
2017-11-07T03:29:50.961Z,10.00
2017-11-07T03:30:57.679Z,10.90
2017-11-07T03:32:04.618Z,8.90
2017-11-07T03:33:11.333Z,8.60
2017-11-07T03:34:18.249Z,10.40
2017-11-07T03:35:25.186Z,11.70
2017-11-07T03:36:32.038Z,9.20
2017-11-07T03:37:39.074Z,9.50
2017-11-07T03:38:45.829Z,11.50
2017-11-07T03:39:52.615Z,11.00
2017-11-07T03:40:59.430Z,9.40
2017-11-07T03:42:06.246Z,10.30
2017-11-07T03:43:13.204Z,11.40
2017-11-07T03:44:20.005Z,10.30
2017-11-07T03:45:26.771Z,14.70
2017-11-07T03:46:33.599Z,11.30
2017-11-07T03:47:40.744Z,10.30
2017-11-07T03:48:47.614Z,10.10
2017-11-07T03:49:54.525Z,14.00
2017-11-07T03:51:01.517Z,10.70
2017-11-07T03:52:11.323Z,9.10
2017-11-07T03:53:15.233Z,11.60
2017-11-07T03:54:22.011Z,11.70
2017-11-07T03:55:28.837Z,9.80
2017-11-07T03:56:35.661Z,10.20
2017-11-07T03:57:42.561Z,9.60
2017-11-07T03:58:49.338Z,10.90
2017-11-07T03:59:56.103Z,8.50
2017-11-07T04:01:02.853Z,11.90
2017-11-07T04:02:09.649Z,10.30
2017-11-07T04:03:16.614Z,10.30
2017-11-07T04:04:23.492Z,12.10
2017-11-07T04:05:30.337Z,11.70
2017-11-07T04:06:37.181Z,10.50
2017-11-07T04:07:44.029Z,11.80
2017-11-07T04:08:50.883Z,14.50
2017-11-07T04:09:57.625Z,11.70
2017-11-07T04:11:04.365Z,11.00
2017-11-07T04:12:11.137Z,12.00
2017-11-07T04:13:17.945Z,11.50
2017-11-07T04:14:24.972Z,15.10
2017-11-07T04:15:31.874Z,12.40
2017-11-07T04:16:38.668Z,10.50
2017-11-07T04:17:45.425Z,9.20
2017-11-07T04:18:52.248Z,11.00
2017-11-07T04:19:59.035Z,13.00
2017-11-07T04:21:05.965Z,11.10
2017-11-07T04:22:12.855Z,12.10
2017-11-07T04:23:19.653Z,11.00
2017-11-07T04:24:26.813Z,12.40
2017-11-07T04:25:33.825Z,10.60
2017-11-07T04:26:40.656Z,11.00
2017-11-07T04:27:47.490Z,12.80
2017-11-07T04:28:54.344Z,14.60
2017-11-07T04:30:01.253Z,12.20
2017-11-07T04:31:08.178Z,10.30
2017-11-07T04:32:14.898Z,11.00
2017-11-07T04:33:21.685Z,10.60
2017-11-07T04:34:28.391Z,12.60
2017-11-07T04:35:35.288Z,13.70
2017-11-07T04:36:42.197Z,13.70
2017-11-07T04:37:49.021Z,12.90
2017-11-07T04:38:55.994Z,11.20
2017-11-07T04:40:02.862Z,11.60
2017-11-07T04:41:09.795Z,10.80
2017-11-07T04:42:16.694Z,9.20
2017-11-07T04:43:23.561Z,10.70
2017-11-07T04:44:30.452Z,11.60
2017-11-07T04:45:37.607Z,11.60
2017-11-07T04:46:43.866Z,11.90
2017-11-07T04:47:50.684Z,11.40
2017-11-07T04:48:57.469Z,12.60
2017-11-07T04:50:04.386Z,10.30
2017-11-07T04:51:11.081Z,13.10
2017-11-07T04:52:18.073Z,12.90
2017-11-07T04:53:25.092Z,11.80
2017-11-07T04:54:31.821Z,11.00
2017-11-07T04:55:38.873Z,11.10
2017-11-07T04:56:45.590Z,11.20
2017-11-07T04:57:52.368Z,17.60
2017-11-07T04:58:59.189Z,12.20
2017-11-07T05:00:05.899Z,11.80
2017-11-07T05:01:12.749Z,13.90
2017-11-07T05:02:19.498Z,14.80
2017-11-07T05:03:26.268Z,14.60
2017-11-07T05:04:32.967Z,13.00
2017-11-07T05:05:39.913Z,11.90
2017-11-07T05:06:46.705Z,12.10
2017-11-07T05:07:53.525Z,13.70
2017-11-07T05:09:00.277Z,13.80
2017-11-07T05:10:07.280Z,11.20
2017-11-07T05:11:14.065Z,15.80
2017-11-07T05:12:20.914Z,12.80
2017-11-07T05:13:27.777Z,11.20
2017-11-07T05:14:34.612Z,11.80
2017-11-07T05:15:41.702Z,12.30
2017-11-07T05:16:48.513Z,9.40
2017-11-07T05:17:55.230Z,12.30
2017-11-07T05:19:02.015Z,12.30
2017-11-07T05:20:09.001Z,13.40
2017-11-07T05:21:15.898Z,13.60
2017-11-07T05:22:22.787Z,12.70
2017-11-07T05:23:29.510Z,14.60
2017-11-07T05:24:36.271Z,13.00
2017-11-07T05:25:43.094Z,13.10
2017-11-07T05:26:49.960Z,12.00
2017-11-07T05:27:56.845Z,11.60
2017-11-07T05:29:03.695Z,17.40
2017-11-07T05:30:10.633Z,14.00
2017-11-07T05:31:17.397Z,12.10
2017-11-07T05:32:24.252Z,12.70
2017-11-07T05:33:31.233Z,12.90
2017-11-07T05:34:38.017Z,11.50
2017-11-07T05:35:44.691Z,10.90
2017-11-07T05:36:51.581Z,15.80
2017-11-07T05:37:58.427Z,16.50
2017-11-07T05:39:05.281Z,14.40
2017-11-07T05:40:12.087Z,14.30
2017-11-07T05:41:18.871Z,14.50
2017-11-07T05:42:25.685Z,15.80
2017-11-07T05:43:32.463Z,16.40
2017-11-07T05:44:39.205Z,16.80
2017-11-07T05:45:45.968Z,15.50
2017-11-07T05:46:52.977Z,18.50
2017-11-07T05:48:00.079Z,18.90
2017-11-07T05:49:07.020Z,16.60
2017-11-07T05:50:13.786Z,17.60
2017-11-07T05:51:20.829Z,15.20
2017-11-07T05:52:27.722Z,14.50
2017-11-07T05:53:34.521Z,15.60
2017-11-07T05:54:41.220Z,16.90
2017-11-07T05:55:48.369Z,13.70
2017-11-07T05:56:55.191Z,14.90
2017-11-07T05:58:02.091Z,14.10
2017-11-07T05:59:08.803Z,13.10
2017-11-07T06:00:15.722Z,17.50
2017-11-07T06:01:22.628Z,16.30
2017-11-07T06:02:29.610Z,15.50
2017-11-07T06:03:36.417Z,13.60
2017-11-07T06:04:43.179Z,14.50
2017-11-07T06:05:49.985Z,16.10
2017-11-07T06:06:56.816Z,19.00
2017-11-07T06:08:03.657Z,13.30
2017-11-07T06:09:10.372Z,16.40
2017-11-07T06:10:17.146Z,15.90
2017-11-07T06:11:24.271Z,15.90
2017-11-07T06:12:31.052Z,15.50
2017-11-07T06:13:37.780Z,14.90
2017-11-07T06:14:44.630Z,15.20
2017-11-07T06:15:51.456Z,16.70
2017-11-07T06:16:58.269Z,14.80
2017-11-07T06:18:05.041Z,15.70
2017-11-07T06:19:12.022Z,17.00
2017-11-07T06:20:18.729Z,15.60
2017-11-07T06:21:25.578Z,16.50
2017-11-07T06:22:32.372Z,21.50
2017-11-07T06:23:39.206Z,20.90
2017-11-07T06:24:46.042Z,22.70
2017-11-07T06:25:52.911Z,22.30
2017-11-07T06:26:59.813Z,22.70
2017-11-07T06:28:06.698Z,18.20
2017-11-07T06:29:13.478Z,18.70
2017-11-07T06:30:20.209Z,19.80
2017-11-07T06:31:26.900Z,18.90
2017-11-07T06:32:33.733Z,18.60
2017-11-07T06:33:40.531Z,19.30
2017-11-07T06:34:47.348Z,19.10
2017-11-07T06:35:54.214Z,19.90
2017-11-07T06:37:01.009Z,18.00
2017-11-07T06:38:07.845Z,18.50
2017-11-07T06:39:14.572Z,21.00
2017-11-07T06:40:21.269Z,20.10
2017-11-07T06:41:28.332Z,17.20
2017-11-07T06:42:35.150Z,16.70
2017-11-07T06:43:41.908Z,17.60
2017-11-07T06:44:48.741Z,21.00
2017-11-07T06:45:55.507Z,18.20
2017-11-07T06:47:02.378Z,17.20
2017-11-07T06:48:09.222Z,19.70
2017-11-07T06:49:16.158Z,18.40
2017-11-07T06:50:23.193Z,18.20
2017-11-07T06:51:29.942Z,21.40
2017-11-07T06:52:36.897Z,17.30
2017-11-07T06:53:43.745Z,17.40
2017-11-07T06:54:50.509Z,17.20
2017-11-07T06:55:57.309Z,23.50
2017-11-07T06:57:04.281Z,20.00
2017-11-07T06:58:11.054Z,26.20
2017-11-07T06:59:17.924Z,24.40
2017-11-07T07:00:24.914Z,23.90
2017-11-07T07:01:31.621Z,24.40
2017-11-07T07:02:38.439Z,24.40
2017-11-07T07:03:45.405Z,21.00
2017-11-07T07:04:52.418Z,28.30
2017-11-07T07:05:59.228Z,22.70
2017-11-07T07:07:06.051Z,23.70
2017-11-07T07:08:12.888Z,26.70
2017-11-07T07:09:19.900Z,26.10
2017-11-07T07:10:26.674Z,30.40
2017-11-07T07:11:33.581Z,30.40
2017-11-07T07:12:40.525Z,30.90
2017-11-07T07:13:47.433Z,26.60
2017-11-07T07:14:54.205Z,28.40
2017-11-07T07:16:01.199Z,30.50
2017-11-07T07:17:08.094Z,23.00
2017-11-07T07:18:15.063Z,30.40
2017-11-07T07:19:21.933Z,29.90
2017-11-07T07:20:28.749Z,27.60
2017-11-07T07:21:35.505Z,28.60
2017-11-07T07:22:42.454Z,24.30
2017-11-07T07:23:49.369Z,26.10
2017-11-07T07:24:56.349Z,28.40
2017-11-07T07:26:03.258Z,32.20
2017-11-07T07:27:10.088Z,28.80
2017-11-07T07:28:16.880Z,29.40
2017-11-07T07:29:23.670Z,30.50
2017-11-07T07:30:30.504Z,33.20
2017-11-07T07:31:37.302Z,26.50
2017-11-07T07:32:44.077Z,32.90
2017-11-07T07:33:50.885Z,30.10
2017-11-07T07:34:57.704Z,25.80
2017-11-07T07:36:04.619Z,24.70
2017-11-07T07:37:11.549Z,22.90
2017-11-07T07:38:18.388Z,25.70
2017-11-07T07:39:25.121Z,24.80
2017-11-07T07:40:32.062Z,24.70
2017-11-07T07:41:38.957Z,23.00
2017-11-07T07:42:45.773Z,24.70
2017-11-07T07:43:52.638Z,27.00
2017-11-07T07:44:59.771Z,22.20
2017-11-07T07:46:06.549Z,23.30
2017-11-07T07:47:13.379Z,23.30
2017-11-07T07:48:20.421Z,24.40
2017-11-07T07:49:27.219Z,24.80
2017-11-07T07:50:34.238Z,22.90
2017-11-07T07:51:40.956Z,21.90
2017-11-07T07:52:47.756Z,21.90
2017-11-07T07:53:54.818Z,21.90
2017-11-07T07:55:01.848Z,23.40
2017-11-07T07:56:08.659Z,22.30
2017-11-07T07:57:15.476Z,24.90
2017-11-07T07:58:22.186Z,24.00
2017-11-07T07:59:29.151Z,27.70
2017-11-07T08:00:36.010Z,24.60
2017-11-07T08:01:42.857Z,22.90
2017-11-07T08:02:49.746Z,25.30
2017-11-07T08:03:56.770Z,23.50
2017-11-07T08:05:03.693Z,25.80
2017-11-07T08:06:10.681Z,31.30
2017-11-07T08:07:17.980Z,26.80
2017-11-07T08:08:25.017Z,22.60
2017-11-07T08:09:31.981Z,23.70
2017-11-07T08:10:38.781Z,25.30
2017-11-07T08:11:45.672Z,24.30
2017-11-07T08:12:52.514Z,24.40
2017-11-07T08:13:59.424Z,25.60
2017-11-07T08:15:06.449Z,25.30
2017-11-07T08:16:13.354Z,23.40
2017-11-07T08:17:20.371Z,25.40
2017-11-07T08:18:27.381Z,23.90
2017-11-07T08:19:34.299Z,22.60
2017-11-07T08:20:41.309Z,24.00
2017-11-07T08:21:48.409Z,26.00
2017-11-07T08:22:55.341Z,25.20
2017-11-07T08:24:02.206Z,25.80
2017-11-07T08:25:09.113Z,25.10
2017-11-07T08:26:16.146Z,21.60
2017-11-07T08:27:23.009Z,24.00
2017-11-07T08:28:29.781Z,24.80
2017-11-07T08:29:36.572Z,23.90
2017-11-07T08:30:43.553Z,24.40
2017-11-07T08:31:50.373Z,25.10
2017-11-07T08:32:57.240Z,21.80
2017-11-07T08:34:04.037Z,21.80
2017-11-07T08:35:10.861Z,19.70
2017-11-07T08:36:17.723Z,19.10
2017-11-07T08:37:24.593Z,23.90
2017-11-07T08:38:31.401Z,26.60
2017-11-07T08:39:38.256Z,23.80
2017-11-07T08:40:45.209Z,26.00
2017-11-07T08:41:51.992Z,25.50
2017-11-07T08:42:58.832Z,24.30
2017-11-07T08:44:05.582Z,21.00
2017-11-07T08:45:12.322Z,25.70
2017-11-07T08:46:19.206Z,26.90
2017-11-07T08:47:26.047Z,25.00
2017-11-07T08:48:32.937Z,24.10
2017-11-07T08:49:39.842Z,25.00
2017-11-07T08:50:46.636Z,23.80
2017-11-07T08:51:53.449Z,26.20
2017-11-07T08:53:00.225Z,25.90
2017-11-07T08:54:07.090Z,22.90
2017-11-07T08:55:13.854Z,25.30
2017-11-07T08:56:20.763Z,25.20
2017-11-07T08:57:27.725Z,30.30
2017-11-07T08:58:34.677Z,26.70
2017-11-07T08:59:41.463Z,25.20
2017-11-07T09:00:48.350Z,22.60
2017-11-07T09:01:55.270Z,23.60
2017-11-07T09:03:02.294Z,23.10
2017-11-07T09:04:09.196Z,23.00
2017-11-07T09:05:16.068Z,23.50
2017-11-07T09:06:22.835Z,25.00
2017-11-07T09:07:29.776Z,24.70
2017-11-07T09:08:36.565Z,25.50
2017-11-07T09:09:43.501Z,23.00
2017-11-07T09:10:50.398Z,25.60
2017-11-07T09:11:57.141Z,24.10
2017-11-07T09:13:03.950Z,26.00
2017-11-07T09:14:10.884Z,24.00
2017-11-07T09:15:17.817Z,24.70
2017-11-07T09:16:24.766Z,29.20
2017-11-07T09:17:31.829Z,26.20
2017-11-07T09:18:38.722Z,25.40
2017-11-07T09:19:45.590Z,26.20
2017-11-07T09:20:52.433Z,29.50
2017-11-07T09:21:59.359Z,25.10
2017-11-07T09:23:06.158Z,24.90
2017-11-07T09:24:13.017Z,26.40
2017-11-07T09:25:19.907Z,28.10
2017-11-07T09:26:26.918Z,27.20
2017-11-07T09:27:33.766Z,30.00
2017-11-07T09:28:40.513Z,28.70
2017-11-07T09:29:47.394Z,25.80
2017-11-07T09:30:54.200Z,28.00
2017-11-07T09:32:01.150Z,25.10
2017-11-07T09:33:08.093Z,27.50
2017-11-07T09:34:14.892Z,27.40
2017-11-07T09:35:21.614Z,31.80
2017-11-07T09:36:28.414Z,28.60
2017-11-07T09:37:35.176Z,28.40
2017-11-07T09:38:42.324Z,26.30
2017-11-07T09:39:49.279Z,26.80
2017-11-07T09:40:56.077Z,27.90
2017-11-07T09:42:02.837Z,27.00
2017-11-07T09:43:09.665Z,25.70
2017-11-07T09:44:16.814Z,24.70
2017-11-07T09:45:23.695Z,26.10
2017-11-07T09:46:30.614Z,26.00
2017-11-07T09:47:37.433Z,26.00
2017-11-07T09:48:44.465Z,25.90
2017-11-07T09:49:51.489Z,27.80
2017-11-07T09:50:58.437Z,25.00
2017-11-07T09:52:05.320Z,25.80
2017-11-07T09:53:12.179Z,30.30
2017-11-07T09:54:19.090Z,24.10
2017-11-07T09:55:25.913Z,25.30
2017-11-07T09:56:32.682Z,27.80
2017-11-07T09:57:39.565Z,27.40
2017-11-07T09:58:46.329Z,26.90
2017-11-07T09:59:53.211Z,27.30
2017-11-07T10:01:00.026Z,29.50
2017-11-07T10:02:06.913Z,28.30
2017-11-07T10:03:13.833Z,32.70
2017-11-07T10:04:20.892Z,25.60
2017-11-07T10:05:27.694Z,27.30
2017-11-07T10:06:34.425Z,28.30
2017-11-07T10:07:41.241Z,29.00
2017-11-07T10:08:48.058Z,30.60
2017-11-07T10:09:54.845Z,29.20
2017-11-07T10:11:01.766Z,31.00
2017-11-07T10:12:08.641Z,28.60
2017-11-07T10:13:15.450Z,27.60
2017-11-07T10:14:22.193Z,25.20
2017-11-07T10:15:29.037Z,27.60
2017-11-07T10:16:36.342Z,31.10
2017-11-07T10:17:42.970Z,32.90
2017-11-07T10:18:49.811Z,26.60
2017-11-07T10:19:56.647Z,27.30
2017-11-07T10:21:03.505Z,23.00
2017-11-07T10:22:10.382Z,24.60
2017-11-07T10:23:17.322Z,23.30
2017-11-07T10:24:24.178Z,25.60
2017-11-07T10:25:31.257Z,24.50
2017-11-07T10:26:38.205Z,25.30
2017-11-07T10:27:45.109Z,20.80
2017-11-07T10:28:52.129Z,18.90
2017-11-07T10:29:59.243Z,22.40
2017-11-07T10:31:06.317Z,23.40
2017-11-07T10:32:13.477Z,23.10
2017-11-07T10:33:19.765Z,22.20
2017-11-07T10:34:26.715Z,24.90
2017-11-07T10:35:33.546Z,21.90
2017-11-07T10:36:40.609Z,22.60
2017-11-07T10:37:47.501Z,21.00
2017-11-07T10:38:54.478Z,22.90
2017-11-07T10:40:01.519Z,25.20
2017-11-07T10:41:08.513Z,24.30
2017-11-07T10:42:15.529Z,20.20
2017-11-07T10:43:22.482Z,23.90
2017-11-07T10:44:29.640Z,19.30
2017-11-07T10:45:36.661Z,21.70
2017-11-07T10:46:43.727Z,25.10
2017-11-07T10:47:50.665Z,21.30
2017-11-07T10:48:57.684Z,20.20
2017-11-07T10:50:04.737Z,24.20
2017-11-07T10:51:11.611Z,21.90
2017-11-07T10:52:18.718Z,22.20
2017-11-07T10:53:25.838Z,22.80
2017-11-07T10:54:32.882Z,26.50
2017-11-07T10:55:39.894Z,23.10
2017-11-07T10:56:46.865Z,21.30
2017-11-07T10:57:53.993Z,22.30
2017-11-07T10:59:01.258Z,23.30
2017-11-07T11:00:07.922Z,23.60
2017-11-07T11:01:14.807Z,23.60
2017-11-07T11:02:21.858Z,23.70
2017-11-07T11:03:28.839Z,22.20
2017-11-07T11:04:35.815Z,20.60
2017-11-07T11:05:42.979Z,21.20
2017-11-07T11:06:49.929Z,23.40
2017-11-07T11:07:56.774Z,22.70
2017-11-07T11:09:03.637Z,20.00
2017-11-07T11:10:10.415Z,19.10
2017-11-07T11:11:17.358Z,20.10
2017-11-07T11:12:24.205Z,22.70
2017-11-07T11:13:31.109Z,24.60
2017-11-07T11:14:37.857Z,22.90
2017-11-07T11:15:44.629Z,22.10
2017-11-07T11:16:51.797Z,24.00
2017-11-07T11:17:58.807Z,28.10
2017-11-07T11:19:05.760Z,55.70
2017-11-07T11:20:13.009Z,52.70
2017-11-07T11:21:19.361Z,35.30
2017-11-07T11:22:26.065Z,58.70
2017-11-07T11:23:33.029Z,39.30
2017-11-07T11:24:39.873Z,31.10
2017-11-07T11:25:04.194Z,34.40
2017-11-07T11:26:10.988Z,25.50
2017-11-07T11:27:18.068Z,23.30
2017-11-07T11:28:24.937Z,25.40
2017-11-07T11:29:31.646Z,25.50
2017-11-07T11:30:38.453Z,24.00
2017-11-07T11:31:45.269Z,23.30
2017-11-07T11:32:52.184Z,23.20
2017-11-07T11:33:59.242Z,20.20
2017-11-07T11:35:06.184Z,23.20
2017-11-07T11:36:12.937Z,23.90
2017-11-07T11:37:19.718Z,23.70
2017-11-07T11:38:26.509Z,26.40
2017-11-07T11:39:33.577Z,25.60
2017-11-07T11:40:40.474Z,25.00
2017-11-07T11:41:47.286Z,25.10
2017-11-07T11:42:54.034Z,22.80
2017-11-07T11:44:01.058Z,24.30
2017-11-07T11:45:08.285Z,23.00
2017-11-07T11:46:14.845Z,23.80
2017-11-07T11:47:21.633Z,24.00
2017-11-07T11:48:28.641Z,25.30
2017-11-07T11:49:35.521Z,34.30
2017-11-07T11:50:42.331Z,28.60
2017-11-07T11:51:49.629Z,32.30
2017-11-07T11:52:56.330Z,74.30
2017-11-07T11:54:03.174Z,37.60
2017-11-07T11:55:10.113Z,42.50
2017-11-07T11:56:17.001Z,28.10
2017-11-07T11:57:23.910Z,22.10
2017-11-07T11:58:30.870Z,22.20
2017-11-07T11:59:37.949Z,24.50
2017-11-07T12:00:44.937Z,21.80
2017-11-07T12:01:51.965Z,30.30
2017-11-07T12:02:58.953Z,26.10
2017-11-07T12:04:05.905Z,22.80
2017-11-07T12:05:12.770Z,21.00
2017-11-07T12:06:19.645Z,24.10
2017-11-07T12:07:27.054Z,23.70
2017-11-07T12:08:33.549Z,25.00
2017-11-07T12:09:40.689Z,21.70
2017-11-07T12:10:47.587Z,23.30
2017-11-07T12:11:54.493Z,20.00
2017-11-07T12:13:01.429Z,21.80
2017-11-07T12:14:08.274Z,18.90
2017-11-07T12:15:15.102Z,22.70
2017-11-07T12:16:21.897Z,18.30
2017-11-07T12:17:28.821Z,19.20
2017-11-07T12:18:35.708Z,19.10
2017-11-07T12:19:42.696Z,20.30
2017-11-07T12:20:49.582Z,21.80
2017-11-07T12:21:56.507Z,22.20
2017-11-07T12:23:03.344Z,21.00
2017-11-07T12:24:10.092Z,16.70
2017-11-07T12:25:16.960Z,16.50
2017-11-07T12:26:23.884Z,20.10
2017-11-07T12:27:30.898Z,19.40
2017-11-07T12:28:37.724Z,21.30
2017-11-07T12:29:44.617Z,20.70
2017-11-07T12:30:51.626Z,20.80
2017-11-07T12:31:58.386Z,20.90
2017-11-07T12:33:05.370Z,21.60
2017-11-07T12:34:12.452Z,22.30
2017-11-07T12:35:19.271Z,26.20
2017-11-07T12:36:26.238Z,27.00
2017-11-07T12:37:33.149Z,23.60
2017-11-07T12:38:39.993Z,18.40
2017-11-07T12:39:46.951Z,19.50
2017-11-07T12:40:53.891Z,26.00
2017-11-07T12:42:00.646Z,17.50
2017-11-07T12:43:07.657Z,19.70
2017-11-07T12:44:14.573Z,20.60
2017-11-07T12:45:21.410Z,21.50
2017-11-07T12:46:28.245Z,20.20
2017-11-07T12:47:35.129Z,18.70
2017-11-07T12:48:42.041Z,21.10
2017-11-07T12:49:48.822Z,20.80
2017-11-07T12:50:55.849Z,21.50
2017-11-07T12:52:02.598Z,18.70
2017-11-07T12:53:09.645Z,18.70
2017-11-07T12:54:16.343Z,21.00
2017-11-07T12:55:23.406Z,25.50
2017-11-07T12:56:30.189Z,24.90
2017-11-07T12:57:37.229Z,20.30
2017-11-07T12:58:44.158Z,14.50
2017-11-07T12:59:51.040Z,16.80
2017-11-07T13:00:57.943Z,16.10
2017-11-07T13:02:04.841Z,17.30
2017-11-07T13:03:11.689Z,16.60
2017-11-07T13:04:18.505Z,20.20
2017-11-07T13:05:25.235Z,18.30
2017-11-07T13:06:32.003Z,17.80
2017-11-07T13:07:38.841Z,26.80
2017-11-07T13:08:45.807Z,23.30
2017-11-07T13:09:52.751Z,16.70
2017-11-07T13:10:59.647Z,20.70
2017-11-07T13:12:06.517Z,15.40
2017-11-07T13:13:13.649Z,16.30
2017-11-07T13:14:20.352Z,16.50
2017-11-07T13:15:27.124Z,17.80
2017-11-07T13:16:33.861Z,18.10
2017-11-07T13:17:40.861Z,15.90
2017-11-07T13:18:47.625Z,19.50
2017-11-07T13:19:54.449Z,14.70
2017-11-07T13:21:01.170Z,23.50
2017-11-07T13:22:08.093Z,34.10
2017-11-07T13:23:15.097Z,22.50
2017-11-07T13:24:22.017Z,31.10
2017-11-07T13:25:28.899Z,23.40
2017-11-07T13:26:35.633Z,14.90
2017-11-07T13:27:42.530Z,17.30
2017-11-07T13:28:49.357Z,18.90
2017-11-07T13:29:56.288Z,16.30
2017-11-07T13:31:03.121Z,15.60
2017-11-07T13:32:10.275Z,19.30
2017-11-07T13:33:17.037Z,18.10
2017-11-07T13:34:23.802Z,18.40
2017-11-07T13:35:30.673Z,21.60
2017-11-07T13:36:37.502Z,23.30
2017-11-07T13:37:44.441Z,23.10
2017-11-07T13:38:51.345Z,22.20
2017-11-07T13:39:58.226Z,18.60
2017-11-07T13:41:05.061Z,15.40
2017-11-07T13:42:11.917Z,16.10
2017-11-07T13:43:18.774Z,16.50
2017-11-07T13:44:25.795Z,15.50
2017-11-07T13:45:32.720Z,21.40
2017-11-07T13:46:39.502Z,22.20
2017-11-07T13:47:46.177Z,20.10
2017-11-07T13:48:52.993Z,20.40
2017-11-07T13:49:59.927Z,24.40
2017-11-07T13:51:06.782Z,18.30
2017-11-07T13:52:13.553Z,22.90
2017-11-07T13:53:20.488Z,20.90
2017-11-07T13:54:27.493Z,20.00
2017-11-07T13:55:34.249Z,17.80
2017-11-07T13:56:41.029Z,16.20
2017-11-07T13:57:47.778Z,20.50
2017-11-07T13:58:54.453Z,20.60
2017-11-07T14:00:01.340Z,18.60
2017-11-07T14:01:08.377Z,20.70
2017-11-07T14:02:15.178Z,16.50
2017-11-07T14:03:22.007Z,20.00
2017-11-07T14:04:29.053Z,23.40
2017-11-07T14:05:35.945Z,18.80
2017-11-07T14:06:42.797Z,17.10
2017-11-07T14:07:49.629Z,18.00
2017-11-07T14:08:56.368Z,19.40
2017-11-07T14:10:03.194Z,17.50
2017-11-07T14:11:10.033Z,20.50
2017-11-07T14:12:16.905Z,18.90
2017-11-07T14:13:23.597Z,18.10
2017-11-07T14:14:30.854Z,17.20
2017-11-07T14:15:37.671Z,19.70
2017-11-07T14:16:44.521Z,20.00
2017-11-07T14:17:51.377Z,17.70
2017-11-07T14:18:58.445Z,18.00
2017-11-07T14:20:05.385Z,22.10
2017-11-07T14:21:12.164Z,21.90
2017-11-07T14:22:19.026Z,20.40
2017-11-07T14:23:25.890Z,22.30
2017-11-07T14:24:32.595Z,23.80
2017-11-07T14:25:39.594Z,24.00